Track Томаровская Ульяна

Time Latitude Longitude Accuracy (66% radius in meters) Altitude (meters) Speed (km/hour) Bearing (degrees) Battery (%) GPS flag
08:13:08 50.413903 36.866069 12 160.70676754947 0.54378175735474 298.60287475586 80 1 delete
07:17:38 50.414154 36.865848 24 133.56841144425 0.25509333610535 49.65064239502 87 1 delete
07:17:28 50.414138 36.865799 16 134.55492131857 0 345.08432006836 87 1 delete
07:17:17 50.414089 36.865818 8 134.77079569218 1.6305865049362 317.99746704102 87 1 delete
07:17:15 50.414076 36.865836 12 134.87949419702 0.59145820140839 357.47610473633 87 1 delete
07:17:07 50.414015 36.865766 8 135.51110281211 2.490683555603 36.817344665527 87 1 delete
07:17:06 50.414005 36.865747 16 135.59013124914 2.5543231964111 48.175476074219 87 1 delete
07:17:02 50.413955 36.865573 8 135.94612902306 2.6359899044037 61.324745178223 87 1 delete
07:16:58 50.413926 36.865417 8 136.09749422506 2.6463341712952 100.84449005127 87 1 delete
07:16:57 50.413930 36.865372 6 136.13779908651 2.6198883056641 100.33178710938 87 1 delete
07:16:54 50.413948 36.865244 8 136.19541827687 2.5980486869812 114.32205963135 87 1 delete
07:16:50 50.413990 36.865084 12 135.73627427519 2.5856068134308 121.00696563721 87 1 delete
07:16:47 50.414044 36.864966 8 135.09663002346 2.5633265972137 116.99649810791 87 1 delete
07:16:44 50.414105 36.864861 12 134.49874359838 2.3702495098114 130.44743347168 87 1 delete
07:16:41 50.414169 36.864757 16 133.91661011282 1.6953797340393 133.76240539551 87 1 delete
07:16:36 50.414197 36.864739 6 133.30460509005 0.24179819226265 123.77226257324 87 1 delete
07:16:26 50.414216 36.864699 6 132.54306316778 0.37763431668282 29.374786376953 87 1 delete
07:16:21 50.414224 36.864618 6 132.20550018768 0.59942483901978 135.59301757812 87 1 delete
07:16:16 50.414288 36.864541 6 131.58604535225 0.42796844244003 143.70050048828 87 1 delete
07:16:05 50.414290 36.864526 16 129.76790275333 0 211.31741333008 87 1 delete
07:15:55 50.414356 36.864583 6 127.46590384199 0.0072193397209048 274.16415405273 87 1 delete
07:15:45 50.414315 36.864636 8 126.25526390831 1.9797259569168 274.16415405273 87 1 delete
07:15:44 50.414312 36.864654 12 126.18381582601 2.0134222507477 278.52163696289 87 1 delete
07:15:40 50.414270 36.864785 16 126.21130235465 2.1165750026703 322.11337280273 87 1 delete
07:15:36 50.414189 36.864882 12 126.20964140186 2.1431524753571 311.00994873047 87 1 delete
07:15:34 50.414144 36.864948 8 126.26592603918 2.1681182384491 328.05191040039 87 1 delete
07:15:31 50.414096 36.865008 16 126.27197907425 2.2275438308716 325.02438354492 87 1 delete
07:15:25 50.414011 36.865157 8 125.91219159193 2.440623998642 288.53305053711 87 1 delete
07:15:24 50.414005 36.865187 12 125.86568424474 2.4622535705566 292.18072509766 87 1 delete
07:15:21 50.413977 36.865311 12 125.65351983569 2.5995671749115 294.00161743164 87 1 delete
07:15:18 50.413936 36.865487 12 125.31555430665 2.6312563419342 269.05587768555 87 1 delete
07:15:14 50.413962 36.865661 8 124.93247774961 2.4251816272736 245.57261657715 87 1 delete
07:15:10 50.414022 36.865810 12 124.53325679799 2.3291447162628 243.2866973877 87 1 delete
07:15:05 50.414058 36.865964 12 124.29094854355 2.4137723445892 262.98046875 87 1 delete
07:15:04 50.414056 36.866006 8 124.24941337932 2.4220314025879 283.61492919922 87 1 delete
07:15:01 50.414017 36.866109 8 124.13414477454 2.4871220588684 302.28085327148 87 1 delete
07:14:56 50.413953 36.866225 8 124.19532014465 2.5941698551178 316.72268676758 87 1 delete
07:14:53 50.413905 36.866309 8 124.23977081689 2.5993552207947 312.20858764648 87 1 delete
07:14:52 50.413887 36.866341 8 124.23353940547 2.5720021724701 302.05261230469 87 1 delete
07:14:48 50.413840 36.866477 8 124.03351852321 2.5609102249146 305.22259521484 87 1 delete
07:14:44 50.413783 36.866624 8 123.70325040861 2.5589129924774 309.23776245117 87 1 delete
07:14:43 50.413765 36.866660 8 123.66272506671 2.5447978973389 320.29077148438 87 1 delete
07:14:41 50.413721 36.866732 8 123.60983964458 2.5077419281006 309.28491210938 87 1 delete
07:14:37 50.413668 36.866879 8 123.41398124377 2.4116022586823 297.31582641602 87 1 delete
07:14:33 50.413605 36.867042 8 123.14041695968 2.3107500076294 311.79965209961 87 1 delete
07:14:29 50.413547 36.867163 8 122.76506447636 2.3414623737335 320.26596069336 87 1 delete
07:14:25 50.413480 36.867262 8 122.47015757251 2.4392242431641 305.3923034668 87 1 delete
07:14:22 50.413436 36.867349 8 122.31000294706 2.5053639411926 316.75473022461 87 1 delete
07:14:21 50.413417 36.867379 8 122.28309919916 2.5085546970367 309.77819824219 87 1 delete
07:14:17 50.413344 36.867520 8 122.15851967782 2.5668046474457 312.60824584961 87 1 delete